Cfl Proud — PBUI — position and weather

sailwx.info

Track history (hours):
 
Tides and Currents Weather Stations Pressure Air Temp Water Temp Dewpoint Dewpoint Depression Visibility Wind Speed Wind Dir Waves Ship Positions

Cfl Proud

Last reported at 2017-Sep-22 02:00 UTC. Time now 2017-Sep-23 05:58 UTC.
Position N 50°21' W 004°38'.

Length 117 m; draft 4.5 m.

Type: Cargo ship. MMSI: 246611000.

Date/timePositionNaut miles runAvg speedWind from/ knotsBaromVisibWave heightAir tempDewpointWater temp
2017-Sep-22 02:00N 50°21' W 004°38'0 0.0
2017-Sep-22 01:30N 50°21' W 004°38'0 0.0
2017-Sep-22 01:00N 50°21' W 004°38'0 0.0
2017-Sep-22 00:30N 50°21' W 004°38'0 0.0
2017-Sep-22 00:01N 50°21' W 004°38'0 0.0
2017-Sep-21 23:31N 50°21' W 004°38'0 0.0
2017-Sep-21 23:00N 50°21' W 004°38'0 0.0
2017-Sep-21 22:30N 50°21' W 004°38'0 0.0
2017-Sep-21 22:00N 50°21' W 004°38'0 0.0
2017-Sep-21 21:31N 50°21' W 004°38'0 0.0
2017-Sep-21 21:00N 50°21' W 004°38'0 0.0
2017-Sep-21 20:30N 50°21' W 004°38'0 0.0
2017-Sep-21 20:00N 50°21' W 004°38'0 0.0
2017-Sep-21 19:30N 50°21' W 004°38'0 0.0
2017-Sep-21 19:00N 50°21' W 004°38'1 0.9
2017-Sep-21 18:11N 50°20' W 004°38'1 3.9
2017-Sep-21 17:53N 50°19' W 004°38'4 9.6
2017-Sep-21 17:30N 50°18' W 004°32'610.8
2017-Sep-21 17:00N 50°18' W 004°23'510.8
2017-Sep-21 16:30N 50°18' W 004°15'5 9.8
2017-Sep-21 16:00N 50°20' W 004°08'2 4.0
2017-Sep-21 15:28N 50°22' W 004°08'0 0.0
2017-Sep-21 14:58N 50°22' W 004°08'0 0.0
2017-Sep-21 14:28N 50°22' W 004°08'0 0.0
2017-Sep-21 13:58N 50°22' W 004°08'0 0.0
2017-Sep-21 13:28N 50°22' W 004°08'0 0.0
2017-Sep-21 12:58N 50°22' W 004°08'0 0.0
2017-Sep-21 12:28N 50°22' W 004°08'0 0.0
2017-Sep-21 11:58N 50°22' W 004°08'0 0.0
2017-Sep-21 11:28N 50°22' W 004°08'0 0.0
2017-Sep-21 10:58N 50°22' W 004°08'0 0.0
2017-Sep-21 10:28N 50°22' W 004°08'0 0.2
2017-Sep-21 10:00N 50°22' W 004°08'2 3.8
2017-Sep-21 09:30N 50°20' W 004°10'5 9.0
2017-Sep-21 09:00N 50°17' W 004°13'5 9.1
2017-Sep-21 08:30N 50°14' W 004°20'2 4.9
2017-Sep-21 08:00N 50°13' W 004°23'3 5.1
2017-Sep-21 07:30N 50°12' W 004°26'611.5
2017-Sep-21 07:00N 50°09' W 004°34'612.4
2017-Sep-21 06:30N 50°06' W 004°42'612.5
2017-Sep-21 06:00N 50°03' W 004°51'612.9
2017-Sep-21 05:30N 49°59' W 004°59'44 7.0
2017-Sep-20 23:17N 50°18' W 006°01'310.0
2017-Sep-20 22:59N 50°21' W 006°01'1310.3
2017-Sep-20 21:44N 50°34' W 006°00'210.4
2017-Sep-20 21:31N 50°36' W 006°00'8210.0
2017-Sep-20 13:20N 51°57' W 005°50'511.7
2017-Sep-20 12:56N 52°02' W 005°47'511.4
2017-Sep-20 12:30N 52°06' W 005°44'711.6
2017-Sep-20 11:54N 52°13' W 005°40'100 9.4
2017-Sep-20 01:12N 53°34' W 004°01'313.0
2017-Sep-20 01:00N 53°34' W 003°56'612.8
2017-Sep-20 00:30N 53°33' W 003°46'612.7
2017-Sep-20 00:00N 53°33' W 003°35'612.4
2017-Sep-19 23:30N 53°33' W 003°24'611.2
2017-Sep-19 23:00N 53°31' W 003°15'510.9
2017-Sep-19 22:30N 53°31' W 003°06'510.5
2017-Sep-19 22:00N 53°27' W 003°01'2 4.7
2017-Sep-19 21:30N 53°24' W 003°01'0 0.0
2017-Sep-19 21:00N 53°24' W 003°01'0 0.0
2017-Sep-19 20:30N 53°24' W 003°01'0 0.7
2017-Sep-19 19:58N 53°24' W 003°02'0 0.8
2017-Sep-19 19:27N 53°24' W 003°03'0 0.0
2017-Sep-19 18:42N 53°24' W 003°03'0 0.0
2017-Sep-19 18:30N 53°24' W 003°03'0 0.0
2017-Sep-19 18:00N 53°24' W 003°03'0 0.0
2017-Sep-19 17:30N 53°24' W 003°03'0 0.0
2017-Sep-19 17:00N 53°24' W 003°03'0 0.0
2017-Sep-19 16:30N 53°24' W 003°03'0 0.0
2017-Sep-19 16:00N 53°24' W 003°03'0 0.0
2017-Sep-19 15:30N 53°24' W 003°03'0 0.0
2017-Sep-19 15:00N 53°24' W 003°03'0 0.0
2017-Sep-19 14:30N 53°24' W 003°03'0 0.0
2017-Sep-19 14:00N 53°24' W 003°03'0 0.0
2017-Sep-19 13:30N 53°24' W 003°03'0 0.0
2017-Sep-19 13:00N 53°24' W 003°03'0 0.0
2017-Sep-19 12:03N 53°24' W 003°03'0 0.0
2017-Sep-19 12:00N 53°24' W 003°03'0 0.0
2017-Sep-19 11:30N 53°24' W 003°03'0 0.0
2017-Sep-19 10:57N 53°24' W 003°03'0 0.0
2017-Sep-19 10:24N 53°24' W 003°03'0 0.0
2017-Sep-19 10:00N 53°24' W 003°03'0 0.0
2017-Sep-19 09:24N 53°24' W 003°03'0 0.0
2017-Sep-19 09:00N 53°24' W 003°03'0 0.0
2017-Sep-19 08:30N 53°24' W 003°03'0 0.0
2017-Sep-19 08:00N 53°24' W 003°03'0 0.0
2017-Sep-19 07:30N 53°24' W 003°03'0 0.0
2017-Sep-19 06:51N 53°24' W 003°03'0 0.0
2017-Sep-19 06:30N 53°24' W 003°03'0 0.0
2017-Sep-19 06:00N 53°24' W 003°03'0 0.0
2017-Sep-19 05:24N 53°24' W 003°03'0 0.0
2017-Sep-19 05:00N 53°24' W 003°03'0 0.0
2017-Sep-19 04:30N 53°24' W 003°03'0 0.0
2017-Sep-19 03:54N 53°24' W 003°03'0 0.0
2017-Sep-19 03:30N 53°24' W 003°03'0 0.0
2017-Sep-19 03:00N 53°24' W 003°03'0 0.0
2017-Sep-19 02:30N 53°24' W 003°03'0 0.0
2017-Sep-19 02:00N 53°24' W 003°03'0 0.0
2017-Sep-19 01:30N 53°24' W 003°03'0 0.0
2017-Sep-19 01:00N 53°24' W 003°03'0 0.0
2017-Sep-19 00:30N 53°24' W 003°03'0 0.0
2017-Sep-19 00:00N 53°24' W 003°03'0 0.0
2017-Sep-18 23:30N 53°24' W 003°03'0 0.0
2017-Sep-18 23:00N 53°24' W 003°03'0 0.0
2017-Sep-18 22:30N 53°24' W 003°03'0 0.0
2017-Sep-18 22:00N 53°24' W 003°03'0 0.0
2017-Sep-18 21:30N 53°24' W 003°03'0 0.0
2017-Sep-18 20:57N 53°24' W 003°03'0 0.0
2017-Sep-18 20:30N 53°24' W 003°03'0 0.0
2017-Sep-18 20:00N 53°24' W 003°03'0 0.0
2017-Sep-18 19:30N 53°24' W 003°03'0 0.0
2017-Sep-18 19:00N 53°24' W 003°03'0 0.0
2017-Sep-18 18:30N 53°24' W 003°03'0 0.0
2017-Sep-18 18:00N 53°24' W 003°03'0 0.0
2017-Sep-18 17:30N 53°24' W 003°03'0 0.0
2017-Sep-18 17:00N 53°24' W 003°03'0 0.0
2017-Sep-18 16:30N 53°24' W 003°03'0 0.0
2017-Sep-18 16:00N 53°24' W 003°03'0 0.0
2017-Sep-18 15:30N 53°24' W 003°03'0 0.0
2017-Sep-18 15:00N 53°24' W 003°03'0 0.0
2017-Sep-18 14:30N 53°24' W 003°03'0 0.0
2017-Sep-18 14:00N 53°24' W 003°03'0 0.0
2017-Sep-18 13:30N 53°24' W 003°03'0 0.0
2017-Sep-18 13:00N 53°24' W 003°03'0 0.0
2017-Sep-18 12:30N 53°24' W 003°03'0 0.0
2017-Sep-18 12:00N 53°24' W 003°03'0 0.0
2017-Sep-18 11:30N 53°24' W 003°03'0 0.0
2017-Sep-18 11:00N 53°24' W 003°03'0 0.0
2017-Sep-18 10:30N 53°24' W 003°03'0 0.0
2017-Sep-18 09:54N 53°24' W 003°03'0 0.0
2017-Sep-18 09:30N 53°24' W 003°03'0 0.0
2017-Sep-18 09:00N 53°24' W 003°03'0 0.0
2017-Sep-18 08:30N 53°24' W 003°03'0 0.0
2017-Sep-18 07:54N 53°24' W 003°03'0 0.0
2017-Sep-18 07:30N 53°24' W 003°03'0 0.0
2017-Sep-18 07:00N 53°24' W 003°03'0 0.0
2017-Sep-18 06:30N 53°24' W 003°03'0 0.0
2017-Sep-18 06:00N 53°24' W 003°03'0 0.0
2017-Sep-18 05:30N 53°24' W 003°03'0 0.1
2017-Sep-18 04:54N 53°24' W 003°03'0 0.0
2017-Sep-18 04:27N 53°24' W 003°03'0 0.0
2017-Sep-18 04:00N 53°24' W 003°03'0 0.0
2017-Sep-18 03:30N 53°24' W 003°03'0 0.0
2017-Sep-18 02:57N 53°24' W 003°03'0 0.0
2017-Sep-18 02:24N 53°24' W 003°03'0 0.0
2017-Sep-18 02:00N 53°24' W 003°03'0 0.0
2017-Sep-18 01:30N 53°24' W 003°03'0 0.0
2017-Sep-18 01:00N 53°24' W 003°03'0 0.0
2017-Sep-18 00:30N 53°24' W 003°03'0 0.0
2017-Sep-18 00:00N 53°24' W 003°03'0 0.0
2017-Sep-17 23:30N 53°24' W 003°03'0 0.0
2017-Sep-17 23:00N 53°24' W 003°03'0 0.0
2017-Sep-17 22:27N 53°24' W 003°03'0 0.0
2017-Sep-17 22:00N 53°24' W 003°03'0 0.0
2017-Sep-17 21:27N 53°24' W 003°03'0 0.0
2017-Sep-17 21:00N 53°24' W 003°03'0 0.0
2017-Sep-17 20:30N 53°24' W 003°03'0 0.0
2017-Sep-17 19:57N 53°24' W 003°03'0 0.0
2017-Sep-17 19:27N 53°24' W 003°03'0 0.0
2017-Sep-17 19:00N 53°24' W 003°03'0 0.0
2017-Sep-17 18:30N 53°24' W 003°03'0 0.0
2017-Sep-17 18:00N 53°24' W 003°03'0 0.0
2017-Sep-17 17:27N 53°24' W 003°03'0 0.0
2017-Sep-17 16:57N 53°24' W 003°03'0 0.0
2017-Sep-17 16:30N 53°24' W 003°03'0 0.0
2017-Sep-17 16:00N 53°24' W 003°03'0 0.0
2017-Sep-17 15:30N 53°24' W 003°03'0 0.0
2017-Sep-17 15:00N 53°24' W 003°03'0 0.0
2017-Sep-17 14:30N 53°24' W 003°03'0 0.0
2017-Sep-17 14:00N 53°24' W 003°03'0 0.0
2017-Sep-17 13:27N 53°24' W 003°03'0 0.0
2017-Sep-17 13:00N 53°24' W 003°03'0 0.0
2017-Sep-17 12:30N 53°24' W 003°03'0 0.0
2017-Sep-17 12:00N 53°24' W 003°03'0 0.0
2017-Sep-17 11:30N 53°24' W 003°03'0 0.0
2017-Sep-17 10:51N 53°24' W 003°03'0 0.0
2017-Sep-17 10:30N 53°24' W 003°03'0 0.0
2017-Sep-17 09:57N 53°24' W 003°03'0 0.0
2017-Sep-17 09:27N 53°24' W 003°03'0 0.0
2017-Sep-17 09:00N 53°24' W 003°03'0 0.0
2017-Sep-17 08:30N 53°24' W 003°03'0 0.0
2017-Sep-17 07:57N 53°24' W 003°03'0 0.0
2017-Sep-17 07:24N 53°24' W 003°03'0 0.0
2017-Sep-17 07:00N 53°24' W 003°03'0 0.0
2017-Sep-17 06:27N 53°24' W 003°03'0 0.0
2017-Sep-17 06:00N 53°24' W 003°03'0 0.0
2017-Sep-17 05:27N 53°24' W 003°03'0 0.0
2017-Sep-17 05:00N 53°24' W 003°03'0 0.0
2017-Sep-17 04:30N 53°24' W 003°03'0 0.0
2017-Sep-17 04:00N 53°24' W 003°03'0 0.0
2017-Sep-17 03:30N 53°24' W 003°03'0 0.0
2017-Sep-17 03:00N 53°24' W 003°03'0 0.0
2017-Sep-17 02:30N 53°24' W 003°03'0 0.0
2017-Sep-17 02:00N 53°24' W 003°03'0 0.0
2017-Sep-17 01:30N 53°24' W 003°03'0 0.0
2017-Sep-17 01:00N 53°24' W 003°03'0 0.0
2017-Sep-17 00:30N 53°24' W 003°03'0 0.0
2017-Sep-17 00:00N 53°24' W 003°03'0 0.0
2017-Sep-16 23:27N 53°24' W 003°03'0 0.0
2017-Sep-16 23:00N 53°24' W 003°03'0 0.0
2017-Sep-16 22:30N 53°24' W 003°03'0 0.0
2017-Sep-16 22:00N 53°24' W 003°03'0 0.0
2017-Sep-16 21:30N 53°24' W 003°03'0 0.0
2017-Sep-16 21:00N 53°24' W 003°03'0 0.0
2017-Sep-16 20:30N 53°24' W 003°03'0 0.0
2017-Sep-16 20:00N 53°24' W 003°03'0 0.0
2017-Sep-16 19:27N 53°24' W 003°03'0 0.0
2017-Sep-16 19:00N 53°24' W 003°03'0 0.0
2017-Sep-16 18:30N 53°24' W 003°03'0 0.0
2017-Sep-16 17:57N 53°24' W 003°03'0 0.0
2017-Sep-16 17:15N 53°24' W 003°03'0 0.0
2017-Sep-16 17:00N 53°24' W 003°03'0 0.0
2017-Sep-16 16:30N 53°24' W 003°03'0 0.0
2017-Sep-16 16:00N 53°24' W 003°03'0 0.0
2017-Sep-16 15:30N 53°24' W 003°03'0 0.0
2017-Sep-16 14:51N 53°24' W 003°03'0 0.0
2017-Sep-16 14:30N 53°24' W 003°03'0 0.0
2017-Sep-16 13:57N 53°24' W 003°03'0 0.0
2017-Sep-16 13:27N 53°24' W 003°03'0 0.0
2017-Sep-16 13:00N 53°24' W 003°03'0 0.0
2017-Sep-16 12:30N 53°24' W 003°03'0 0.0
2017-Sep-16 12:00N 53°24' W 003°03'0 0.0
2017-Sep-16 11:27N 53°24' W 003°03'0 0.0
2017-Sep-16 11:00N 53°24' W 003°03'0 0.0
2017-Sep-16 10:30N 53°24' W 003°03'0 0.0
2017-Sep-16 09:54N 53°24' W 003°03'0 0.3
2017-Sep-16 09:30N 53°24' W 003°03'1 1.7
2017-Sep-16 09:01N 53°24' W 003°01'0 0.2
2017-Sep-16 08:30N 53°24' W 003°01'0 0.0
2017-Sep-16 08:00N 53°24' W 003°01'0 0.0
2017-Sep-16 07:30N 53°24' W 003°01'0 0.0
2017-Sep-16 07:00N 53°24' W 003°01'0 0.5
2017-Sep-16 06:30N 53°24' W 003°01'0 0.2
2017-Sep-16 06:00N 53°24' W 003°01'4 7.2
2017-Sep-16 05:30N 53°28' W 003°03'611.2
2017-Sep-16 05:00N 53°32' W 003°10'611.7
2017-Sep-16 04:30N 53°31' W 003°19'4 7.3
2017-Sep-16 04:01N 53°31' W 003°25'3 6.6
2017-Sep-16 03:31N 53°31' W 003°31'5 9.3
2017-Sep-16 03:00N 53°31' W 003°39'4 8.7
2017-Sep-16 02:30N 53°29' W 003°46'5 9.0
2017-Sep-16 02:00N 53°28' W 003°53'4 9.0
2017-Sep-16 01:30N 53°26' W 003°60'  
2017-Sep-13 19:09N 53°54' W 005°38'511.4
2017-Sep-13 18:45N 53°56' W 005°45'411.5
2017-Sep-13 18:27N 53°57' W 005°50'511.4
2017-Sep-13 17:59N 53°59' W 005°59'  
Track history (hours):
 
Tides and Currents Weather Stations Pressure Air Temp Water Temp Dewpoint Dewpoint Depression Visibility Wind Speed Wind Dir Waves Ship Positions

Cfl Proud

Last reported at 2017-Sep-22 02:00 UTC. Time now 2017-Sep-23 05:58 UTC.
Position N 50°21' W 004°38'.

Length 117 m; draft 4.5 m.

Type: Cargo ship. MMSI: 246611000.

Date/timePositionNaut miles runAvg speedWind from/ knotsBaromVisibWave heightAir tempDewpointWater temp
2017-Sep-22 02:00N 50°21' W 004°38'0 0.0
2017-Sep-22 01:30N 50°21' W 004°38'0 0.0
2017-Sep-22 01:00N 50°21' W 004°38'0 0.0
2017-Sep-22 00:30N 50°21' W 004°38'0 0.0
2017-Sep-22 00:01N 50°21' W 004°38'0 0.0
2017-Sep-21 23:31N 50°21' W 004°38'0 0.0
2017-Sep-21 23:00N 50°21' W 004°38'0 0.0
2017-Sep-21 22:30N 50°21' W 004°38'0 0.0
2017-Sep-21 22:00N 50°21' W 004°38'0 0.0
2017-Sep-21 21:31N 50°21' W 004°38'0 0.0
2017-Sep-21 21:00N 50°21' W 004°38'0 0.0
2017-Sep-21 20:30N 50°21' W 004°38'0 0.0
2017-Sep-21 20:00N 50°21' W 004°38'0 0.0
2017-Sep-21 19:30N 50°21' W 004°38'0 0.0
2017-Sep-21 19:00N 50°21' W 004°38'1 0.9
2017-Sep-21 18:11N 50°20' W 004°38'1 3.9
2017-Sep-21 17:53N 50°19' W 004°38'4 9.6
2017-Sep-21 17:30N 50°18' W 004°32'610.8
2017-Sep-21 17:00N 50°18' W 004°23'510.8
2017-Sep-21 16:30N 50°18' W 004°15'5 9.8
2017-Sep-21 16:00N 50°20' W 004°08'2 4.0
2017-Sep-21 15:28N 50°22' W 004°08'0 0.0
2017-Sep-21 14:58N 50°22' W 004°08'0 0.0
2017-Sep-21 14:28N 50°22' W 004°08'0 0.0
2017-Sep-21 13:58N 50°22' W 004°08'0 0.0
2017-Sep-21 13:28N 50°22' W 004°08'0 0.0
2017-Sep-21 12:58N 50°22' W 004°08'0 0.0
2017-Sep-21 12:28N 50°22' W 004°08'0 0.0
2017-Sep-21 11:58N 50°22' W 004°08'0 0.0
2017-Sep-21 11:28N 50°22' W 004°08'0 0.0
2017-Sep-21 10:58N 50°22' W 004°08'0 0.0
2017-Sep-21 10:28N 50°22' W 004°08'0 0.2
2017-Sep-21 10:00N 50°22' W 004°08'2 3.8
2017-Sep-21 09:30N 50°20' W 004°10'5 9.0
2017-Sep-21 09:00N 50°17' W 004°13'5 9.1
2017-Sep-21 08:30N 50°14' W 004°20'2 4.9
2017-Sep-21 08:00N 50°13' W 004°23'3 5.1
2017-Sep-21 07:30N 50°12' W 004°26'611.5
2017-Sep-21 07:00N 50°09' W 004°34'612.4
2017-Sep-21 06:30N 50°06' W 004°42'612.5
2017-Sep-21 06:00N 50°03' W 004°51'612.9
2017-Sep-21 05:30N 49°59' W 004°59'44 7.0
2017-Sep-20 23:17N 50°18' W 006°01'310.0
2017-Sep-20 22:59N 50°21' W 006°01'1310.3
2017-Sep-20 21:44N 50°34' W 006°00'210.4
2017-Sep-20 21:31N 50°36' W 006°00'8210.0
2017-Sep-20 13:20N 51°57' W 005°50'511.7
2017-Sep-20 12:56N 52°02' W 005°47'511.4
2017-Sep-20 12:30N 52°06' W 005°44'711.6
2017-Sep-20 11:54N 52°13' W 005°40'100 9.4
2017-Sep-20 01:12N 53°34' W 004°01'313.0
2017-Sep-20 01:00N 53°34' W 003°56'612.8
2017-Sep-20 00:30N 53°33' W 003°46'612.7
2017-Sep-20 00:00N 53°33' W 003°35'612.4
2017-Sep-19 23:30N 53°33' W 003°24'611.2
2017-Sep-19 23:00N 53°31' W 003°15'510.9
2017-Sep-19 22:30N 53°31' W 003°06'510.5
2017-Sep-19 22:00N 53°27' W 003°01'2 4.7
2017-Sep-19 21:30N 53°24' W 003°01'0 0.0
2017-Sep-19 21:00N 53°24' W 003°01'0 0.0
2017-Sep-19 20:30N 53°24' W 003°01'0 0.7
2017-Sep-19 19:58N 53°24' W 003°02'0 0.8
2017-Sep-19 19:27N 53°24' W 003°03'0 0.0
2017-Sep-19 18:42N 53°24' W 003°03'0 0.0
2017-Sep-19 18:30N 53°24' W 003°03'0 0.0
2017-Sep-19 18:00N 53°24' W 003°03'0 0.0
2017-Sep-19 17:30N 53°24' W 003°03'0 0.0
2017-Sep-19 17:00N 53°24' W 003°03'0 0.0
2017-Sep-19 16:30N 53°24' W 003°03'0 0.0
2017-Sep-19 16:00N 53°24' W 003°03'0 0.0
2017-Sep-19 15:30N 53°24' W 003°03'0 0.0
2017-Sep-19 15:00N 53°24' W 003°03'0 0.0
2017-Sep-19 14:30N 53°24' W 003°03'0 0.0
2017-Sep-19 14:00N 53°24' W 003°03'0 0.0
2017-Sep-19 13:30N 53°24' W 003°03'0 0.0
2017-Sep-19 13:00N 53°24' W 003°03'0 0.0
2017-Sep-19 12:03N 53°24' W 003°03'0 0.0
2017-Sep-19 12:00N 53°24' W 003°03'0 0.0
2017-Sep-19 11:30N 53°24' W 003°03'0 0.0
2017-Sep-19 10:57N 53°24' W 003°03'0 0.0
2017-Sep-19 10:24N 53°24' W 003°03'0 0.0
2017-Sep-19 10:00N 53°24' W 003°03'0 0.0
2017-Sep-19 09:24N 53°24' W 003°03'0 0.0
2017-Sep-19 09:00N 53°24' W 003°03'0 0.0
2017-Sep-19 08:30N 53°24' W 003°03'0 0.0
2017-Sep-19 08:00N 53°24' W 003°03'0 0.0
2017-Sep-19 07:30N 53°24' W 003°03'0 0.0
2017-Sep-19 06:51N 53°24' W 003°03'0 0.0
2017-Sep-19 06:30N 53°24' W 003°03'0 0.0
2017-Sep-19 06:00N 53°24' W 003°03'0 0.0
2017-Sep-19 05:24N 53°24' W 003°03'0 0.0
2017-Sep-19 05:00N 53°24' W 003°03'0 0.0
2017-Sep-19 04:30N 53°24' W 003°03'0 0.0
2017-Sep-19 03:54N 53°24' W 003°03'0 0.0
2017-Sep-19 03:30N 53°24' W 003°03'0 0.0
2017-Sep-19 03:00N 53°24' W 003°03'0 0.0
2017-Sep-19 02:30N 53°24' W 003°03'0 0.0
2017-Sep-19 02:00N 53°24' W 003°03'0 0.0
2017-Sep-19 01:30N 53°24' W 003°03'0 0.0
2017-Sep-19 01:00N 53°24' W 003°03'0 0.0
2017-Sep-19 00:30N 53°24' W 003°03'0 0.0
2017-Sep-19 00:00N 53°24' W 003°03'0 0.0
2017-Sep-18 23:30N 53°24' W 003°03'0 0.0
2017-Sep-18 23:00N 53°24' W 003°03'0 0.0
2017-Sep-18 22:30N 53°24' W 003°03'0 0.0
2017-Sep-18 22:00N 53°24' W 003°03'0 0.0
2017-Sep-18 21:30N 53°24' W 003°03'0 0.0
2017-Sep-18 20:57N 53°24' W 003°03'0 0.0
2017-Sep-18 20:30N 53°24' W 003°03'0 0.0
2017-Sep-18 20:00N 53°24' W 003°03'0 0.0
2017-Sep-18 19:30N 53°24' W 003°03'0 0.0
2017-Sep-18 19:00N 53°24' W 003°03'0 0.0
2017-Sep-18 18:30N 53°24' W 003°03'0 0.0
2017-Sep-18 18:00N 53°24' W 003°03'0 0.0
2017-Sep-18 17:30N 53°24' W 003°03'0 0.0
2017-Sep-18 17:00N 53°24' W 003°03'0 0.0
2017-Sep-18 16:30N 53°24' W 003°03'0 0.0
2017-Sep-18 16:00N 53°24' W 003°03'0 0.0
2017-Sep-18 15:30N 53°24' W 003°03'0 0.0
2017-Sep-18 15:00N 53°24' W 003°03'0 0.0
2017-Sep-18 14:30N 53°24' W 003°03'0 0.0
2017-Sep-18 14:00N 53°24' W 003°03'0 0.0
2017-Sep-18 13:30N 53°24' W 003°03'0 0.0
2017-Sep-18 13:00N 53°24' W 003°03'0 0.0
2017-Sep-18 12:30N 53°24' W 003°03'0 0.0
2017-Sep-18 12:00N 53°24' W 003°03'0 0.0
2017-Sep-18 11:30N 53°24' W 003°03'0 0.0
2017-Sep-18 11:00N 53°24' W 003°03'0 0.0
2017-Sep-18 10:30N 53°24' W 003°03'0 0.0
2017-Sep-18 09:54N 53°24' W 003°03'0 0.0
2017-Sep-18 09:30N 53°24' W 003°03'0 0.0
2017-Sep-18 09:00N 53°24' W 003°03'0 0.0
2017-Sep-18 08:30N 53°24' W 003°03'0 0.0
2017-Sep-18 07:54N 53°24' W 003°03'0 0.0
2017-Sep-18 07:30N 53°24' W 003°03'0 0.0
2017-Sep-18 07:00N 53°24' W 003°03'0 0.0
2017-Sep-18 06:30N 53°24' W 003°03'0 0.0
2017-Sep-18 06:00N 53°24' W 003°03'0 0.0
2017-Sep-18 05:30N 53°24' W 003°03'0 0.1
2017-Sep-18 04:54N 53°24' W 003°03'0 0.0
2017-Sep-18 04:27N 53°24' W 003°03'0 0.0
2017-Sep-18 04:00N 53°24' W 003°03'0 0.0
2017-Sep-18 03:30N 53°24' W 003°03'0 0.0
2017-Sep-18 02:57N 53°24' W 003°03'0 0.0
2017-Sep-18 02:24N 53°24' W 003°03'0 0.0
2017-Sep-18 02:00N 53°24' W 003°03'0 0.0
2017-Sep-18 01:30N 53°24' W 003°03'0 0.0
2017-Sep-18 01:00N 53°24' W 003°03'0 0.0
2017-Sep-18 00:30N 53°24' W 003°03'0 0.0
2017-Sep-18 00:00N 53°24' W 003°03'0 0.0
2017-Sep-17 23:30N 53°24' W 003°03'0 0.0
2017-Sep-17 23:00N 53°24' W 003°03'0 0.0
2017-Sep-17 22:27N 53°24' W 003°03'0 0.0
2017-Sep-17 22:00N 53°24' W 003°03'0 0.0
2017-Sep-17 21:27N 53°24' W 003°03'0 0.0
2017-Sep-17 21:00N 53°24' W 003°03'0 0.0
2017-Sep-17 20:30N 53°24' W 003°03'0 0.0
2017-Sep-17 19:57N 53°24' W 003°03'0 0.0
2017-Sep-17 19:27N 53°24' W 003°03'0 0.0
2017-Sep-17 19:00N 53°24' W 003°03'0 0.0
2017-Sep-17 18:30N 53°24' W 003°03'0 0.0
2017-Sep-17 18:00N 53°24' W 003°03'0 0.0
2017-Sep-17 17:27N 53°24' W 003°03'0 0.0
2017-Sep-17 16:57N 53°24' W 003°03'0 0.0
2017-Sep-17 16:30N 53°24' W 003°03'0 0.0
2017-Sep-17 16:00N 53°24' W 003°03'0 0.0
2017-Sep-17 15:30N 53°24' W 003°03'0 0.0
2017-Sep-17 15:00N 53°24' W 003°03'0 0.0
2017-Sep-17 14:30N 53°24' W 003°03'0 0.0
2017-Sep-17 14:00N 53°24' W 003°03'0 0.0
2017-Sep-17 13:27N 53°24' W 003°03'0 0.0
2017-Sep-17 13:00N 53°24' W 003°03'0 0.0
2017-Sep-17 12:30N 53°24' W 003°03'0 0.0
2017-Sep-17 12:00N 53°24' W 003°03'0 0.0
2017-Sep-17 11:30N 53°24' W 003°03'0 0.0
2017-Sep-17 10:51N 53°24' W 003°03'0 0.0
2017-Sep-17 10:30N 53°24' W 003°03'0 0.0
2017-Sep-17 09:57N 53°24' W 003°03'0 0.0
2017-Sep-17 09:27N 53°24' W 003°03'0 0.0
2017-Sep-17 09:00N 53°24' W 003°03'0 0.0
2017-Sep-17 08:30N 53°24' W 003°03'0 0.0
2017-Sep-17 07:57N 53°24' W 003°03'0 0.0
2017-Sep-17 07:24N 53°24' W 003°03'0 0.0
2017-Sep-17 07:00N 53°24' W 003°03'0 0.0
2017-Sep-17 06:27N 53°24' W 003°03'0 0.0
2017-Sep-17 06:00N 53°24' W 003°03'0 0.0
2017-Sep-17 05:27N 53°24' W 003°03'0 0.0
2017-Sep-17 05:00N 53°24' W 003°03'0 0.0
2017-Sep-17 04:30N 53°24' W 003°03'0 0.0
2017-Sep-17 04:00N 53°24' W 003°03'0 0.0
2017-Sep-17 03:30N 53°24' W 003°03'0 0.0
2017-Sep-17 03:00N 53°24' W 003°03'0 0.0
2017-Sep-17 02:30N 53°24' W 003°03'0 0.0
2017-Sep-17 02:00N 53°24' W 003°03'0 0.0
2017-Sep-17 01:30N 53°24' W 003°03'0 0.0
2017-Sep-17 01:00N 53°24' W 003°03'0 0.0
2017-Sep-17 00:30N 53°24' W 003°03'0 0.0
2017-Sep-17 00:00N 53°24' W 003°03'0 0.0
2017-Sep-16 23:27N 53°24' W 003°03'0 0.0
2017-Sep-16 23:00N 53°24' W 003°03'0 0.0
2017-Sep-16 22:30N 53°24' W 003°03'0 0.0
2017-Sep-16 22:00N 53°24' W 003°03'0 0.0
2017-Sep-16 21:30N 53°24' W 003°03'0 0.0
2017-Sep-16 21:00N 53°24' W 003°03'0 0.0
2017-Sep-16 20:30N 53°24' W 003°03'0 0.0
2017-Sep-16 20:00N 53°24' W 003°03'0 0.0
2017-Sep-16 19:27N 53°24' W 003°03'0 0.0
2017-Sep-16 19:00N 53°24' W 003°03'0 0.0
2017-Sep-16 18:30N 53°24' W 003°03'0 0.0
2017-Sep-16 17:57N 53°24' W 003°03'0 0.0
2017-Sep-16 17:15N 53°24' W 003°03'0 0.0
2017-Sep-16 17:00N 53°24' W 003°03'0 0.0
2017-Sep-16 16:30N 53°24' W 003°03'0 0.0
2017-Sep-16 16:00N 53°24' W 003°03'0 0.0
2017-Sep-16 15:30N 53°24' W 003°03'0 0.0
2017-Sep-16 14:51N 53°24' W 003°03'0 0.0
2017-Sep-16 14:30N 53°24' W 003°03'0 0.0
2017-Sep-16 13:57N 53°24' W 003°03'0 0.0
2017-Sep-16 13:27N 53°24' W 003°03'0 0.0
2017-Sep-16 13:00N 53°24' W 003°03'0 0.0
2017-Sep-16 12:30N 53°24' W 003°03'0 0.0
2017-Sep-16 12:00N 53°24' W 003°03'0 0.0
2017-Sep-16 11:27N 53°24' W 003°03'0 0.0
2017-Sep-16 11:00N 53°24' W 003°03'0 0.0
2017-Sep-16 10:30N 53°24' W 003°03'0 0.0
2017-Sep-16 09:54N 53°24' W 003°03'0 0.3
2017-Sep-16 09:30N 53°24' W 003°03'1 1.7
2017-Sep-16 09:01N 53°24' W 003°01'0 0.2
2017-Sep-16 08:30N 53°24' W 003°01'0 0.0
2017-Sep-16 08:00N 53°24' W 003°01'0 0.0
2017-Sep-16 07:30N 53°24' W 003°01'0 0.0
2017-Sep-16 07:00N 53°24' W 003°01'0 0.5
2017-Sep-16 06:30N 53°24' W 003°01'0 0.2
2017-Sep-16 06:00N 53°24' W 003°01'4 7.2
2017-Sep-16 05:30N 53°28' W 003°03'611.2
2017-Sep-16 05:00N 53°32' W 003°10'611.7
2017-Sep-16 04:30N 53°31' W 003°19'4 7.3
2017-Sep-16 04:01N 53°31' W 003°25'3 6.6
2017-Sep-16 03:31N 53°31' W 003°31'5 9.3
2017-Sep-16 03:00N 53°31' W 003°39'4 8.7
2017-Sep-16 02:30N 53°29' W 003°46'5 9.0
2017-Sep-16 02:00N 53°28' W 003°53'4 9.0
2017-Sep-16 01:30N 53°26' W 003°60'  
2017-Sep-13 19:09N 53°54' W 005°38'511.4
2017-Sep-13 18:45N 53°56' W 005°45'411.5
2017-Sep-13 18:27N 53°57' W 005°50'511.4
2017-Sep-13 17:59N 53°59' W 005°59'  

Dump ship's entire track history